KRVS/RVS METAR and TAF weather

Enter ICAO airport designator
Station Type Date Time Source
KRVS METAR 2020/12/05 05:53 UTC NOAA

KRVS 050553Z AUTO 00000KT 10SM CLR 00/M01 A3020 RMK AO2 SLP235 T00001011 10072 21006 401391039 53005


Station Type Date Time Source
KRVS Decoded METAR 2020/12/05 05:53 UTC NOAA

TULSA JONES JR. AIRPORT, OK, United States (KRVS) 36-03N 095-59W 200M
Dec 05, 2020 - 12:53 AM EST / 2020.12.05 0553 UTC
Wind: Calm:0
Visibility: 10 mile(s):0
Sky conditions: clear
Temperature: 32.0 F (0.0 C)
Dew Point: 30.0 F (-1.1 C)
Relative Humidity: 92%
Pressure (altimeter): 30.2 in. Hg (1022 hPa)
Pressure tendency: 0.01 inches (0.5 hPa) higher than three hours ago
ob: KRVS 050553Z AUTO 00000KT 10SM CLR 00/M01 A3020 RMK AO2 SLP235 T00001011 10072 21006 401391039 53005
cycle: 6

Station Type Date Time Source
KRVS TAF 2020/12/05 06:22 UTC NOAA

TAF KRVS 050520Z 0506/0606 27004KT P6SM SKC
FM051800 31006KT P6SM SKC
FM060000 35004KT P6SM SCT250

Example: see airport list